Table Rock, Nebraska
Current Conditions -  °F | °C
As of 2:53 AM on Wednesday 22 Oct 2014 (Local Time) from KFNB Reporting Station
Clear Clear  
Wind Chill: 55°   Ceiling: Unl
Heat Index: 55°   Visibility: 10mi
Dew Point: 45°   Wind: 8mph
Humidity: 69%   Direction: 140°SE
Pressure: 30.1"   Gusts: NA
Location:  40.18°N, 96.1°W
Report Text: KFNB 220753Z AUTO 14007KT 10SM CLR 13/07 A3010 RMK AO2 SLP186 T01280072
Loading
Personal Weather Stations






























Interactive Weather Map New forecast layout! Learn more

10-Day Weather Forecast

Advertisements
Track Severe Weather on mobile